sensor_id;sensor_type;location;lat;lon;timestamp;P1;durP1;ratioP1;P2;durP2;ratioP2
51927;SDS011;37953;52.806;18.270;2024-02-15T00:02:16;53.88;;;23.25;;
51927;SDS011;37953;52.806;18.270;2024-02-15T00:04:42;53.22;;;23.77;;
51927;SDS011;37953;52.806;18.270;2024-02-15T00:07:08;48.08;;;23.38;;
51927;SDS011;37953;52.806;18.270;2024-02-15T00:09:34;46.10;;;22.40;;
51927;SDS011;37953;52.806;18.270;2024-02-15T00:12:00;52.28;;;24.20;;
51927;SDS011;37953;52.806;18.270;2024-02-15T00:14:26;51.00;;;24.88;;
51927;SDS011;37953;52.806;18.270;2024-02-15T00:16:57;53.65;;;25.15;;
51927;SDS011;37953;52.806;18.270;2024-02-15T00:19:23;66.40;;;25.80;;
51927;SDS011;37953;52.806;18.270;2024-02-15T00:21:50;55.55;;;25.42;;
51927;SDS011;37953;52.806;18.270;2024-02-15T00:24:16;61.30;;;26.50;;
51927;SDS011;37953;52.806;18.270;2024-02-15T00:26:42;54.22;;;24.50;;
51927;SDS011;37953;52.806;18.270;2024-02-15T00:29:09;54.63;;;26.25;;
51927;SDS011;37953;52.806;18.270;2024-02-15T00:31:36;55.80;;;26.90;;
51927;SDS011;37953;52.806;18.270;2024-02-15T00:34:13;55.53;;;24.98;;
51927;SDS011;37953;52.806;18.270;2024-02-15T00:36:41;54.30;;;26.05;;
51927;SDS011;37953;52.806;18.270;2024-02-15T00:39:09;53.38;;;24.85;;
51927;SDS011;37953;52.806;18.270;2024-02-15T00:41:45;53.88;;;25.38;;
51927;SDS011;37953;52.806;18.270;2024-02-15T00:44:15;56.25;;;25.80;;
51927;SDS011;37953;52.806;18.270;2024-02-15T00:46:41;57.90;;;25.77;;
51927;SDS011;37953;52.806;18.270;2024-02-15T00:49:07;58.00;;;26.73;;
51927;SDS011;37953;52.806;18.270;2024-02-15T00:51:33;70.57;;;28.35;;
51927;SDS011;37953;52.806;18.270;2024-02-15T00:54:01;59.25;;;27.50;;
51927;SDS011;37953;52.806;18.270;2024-02-15T00:56:37;71.43;;;29.83;;
51927;SDS011;37953;52.806;18.270;2024-02-15T00:59:06;67.72;;;30.30;;
51927;SDS011;37953;52.806;18.270;2024-02-15T01:01:32;77.60;;;33.35;;
51927;SDS011;37953;52.806;18.270;2024-02-15T01:03:58;78.72;;;32.97;;
51927;SDS011;37953;52.806;18.270;2024-02-15T01:06:24;75.57;;;32.50;;
51927;SDS011;37953;52.806;18.270;2024-02-15T01:08:51;80.85;;;35.35;;
51927;SDS011;37953;52.806;18.270;2024-02-15T01:11:17;80.40;;;34.25;;
51927;SDS011;37953;52.806;18.270;2024-02-15T01:13:43;82.40;;;35.08;;
51927;SDS011;37953;52.806;18.270;2024-02-15T01:16:12;77.35;;;34.58;;
51927;SDS011;37953;52.806;18.270;2024-02-15T01:18:38;81.07;;;34.78;;
51927;SDS011;37953;52.806;18.270;2024-02-15T01:21:04;76.70;;;31.50;;
51927;SDS011;37953;52.806;18.270;2024-02-15T01:23:32;67.75;;;31.05;;
51927;SDS011;37953;52.806;18.270;2024-02-15T01:25:58;61.03;;;29.13;;
51927;SDS011;37953;52.806;18.270;2024-02-15T01:28:25;56.30;;;27.13;;
51927;SDS011;37953;52.806;18.270;2024-02-15T01:30:50;45.00;;;23.55;;
51927;SDS011;37953;52.806;18.270;2024-02-15T01:33:17;46.47;;;24.40;;
51927;SDS011;37953;52.806;18.270;2024-02-15T01:35:45;45.47;;;23.83;;
51927;SDS011;37953;52.806;18.270;2024-02-15T01:38:12;46.13;;;23.55;;
51927;SDS011;37953;52.806;18.270;2024-02-15T01:40:38;40.53;;;23.10;;
51927;SDS011;37953;52.806;18.270;2024-02-15T01:43:05;38.38;;;20.90;;
51927;SDS011;37953;52.806;18.270;2024-02-15T01:45:31;45.70;;;21.15;;
51927;SDS011;37953;52.806;18.270;2024-02-15T01:47:57;36.97;;;20.10;;
51927;SDS011;37953;52.806;18.270;2024-02-15T01:50:24;46.83;;;20.70;;
51927;SDS011;37953;52.806;18.270;2024-02-15T01:53:01;34.53;;;20.15;;
51927;SDS011;37953;52.806;18.270;2024-02-15T01:55:30;46.05;;;20.60;;
51927;SDS011;37953;52.806;18.270;2024-02-15T01:57:59;38.92;;;19.67;;
51927;SDS011;37953;52.806;18.270;2024-02-15T02:00:27;42.92;;;19.75;;
51927;SDS011;37953;52.806;18.270;2024-02-15T02:02:53;36.17;;;20.08;;
51927;SDS011;37953;52.806;18.270;2024-02-15T02:05:40;40.08;;;20.08;;
51927;SDS011;37953;52.806;18.270;2024-02-15T02:08:07;34.17;;;20.27;;
51927;SDS011;37953;52.806;18.270;2024-02-15T02:10:37;46.35;;;21.23;;
51927;SDS011;37953;52.806;18.270;2024-02-15T02:13:05;38.83;;;20.38;;
51927;SDS011;37953;52.806;18.270;2024-02-15T02:15:31;34.38;;;20.10;;
51927;SDS011;37953;52.806;18.270;2024-02-15T02:17:58;37.08;;;21.05;;
51927;SDS011;37953;52.806;18.270;2024-02-15T02:20:26;37.70;;;21.35;;
51927;SDS011;37953;52.806;18.270;2024-02-15T02:22:53;44.53;;;21.65;;
51927;SDS011;37953;52.806;18.270;2024-02-15T02:25:32;34.58;;;19.83;;
51927;SDS011;37953;52.806;18.270;2024-02-15T02:28:00;35.28;;;20.52;;
51927;SDS011;37953;52.806;18.270;2024-02-15T02:30:27;39.08;;;21.92;;
51927;SDS011;37953;52.806;18.270;2024-02-15T02:32:56;39.75;;;22.67;;
51927;SDS011;37953;52.806;18.270;2024-02-15T02:35:25;41.30;;;21.83;;
51927;SDS011;37953;52.806;18.270;2024-02-15T02:37:52;36.00;;;20.73;;
51927;SDS011;37953;52.806;18.270;2024-02-15T02:40:18;39.13;;;20.75;;
51927;SDS011;37953;52.806;18.270;2024-02-15T02:42:52;35.83;;;20.17;;
51927;SDS011;37953;52.806;18.270;2024-02-15T02:45:19;35.15;;;20.88;;
51927;SDS011;37953;52.806;18.270;2024-02-15T02:47:53;36.47;;;20.98;;
51927;SDS011;37953;52.806;18.270;2024-02-15T02:50:20;39.65;;;22.23;;
51927;SDS011;37953;52.806;18.270;2024-02-15T02:56:07;39.70;;;22.50;;
51927;SDS011;37953;52.806;18.270;2024-02-15T02:58:34;38.58;;;21.88;;
51927;SDS011;37953;52.806;18.270;2024-02-15T03:01:01;37.45;;;21.75;;
51927;SDS011;37953;52.806;18.270;2024-02-15T03:03:27;35.70;;;21.35;;
51927;SDS011;37953;52.806;18.270;2024-02-15T03:05:53;35.80;;;20.98;;
51927;SDS011;37953;52.806;18.270;2024-02-15T03:08:22;37.35;;;21.20;;
51927;SDS011;37953;52.806;18.270;2024-02-15T03:10:49;40.20;;;22.55;;
51927;SDS011;37953;52.806;18.270;2024-02-15T03:13:17;42.47;;;23.63;;
51927;SDS011;37953;52.806;18.270;2024-02-15T03:15:53;43.22;;;23.75;;
51927;SDS011;37953;52.806;18.270;2024-02-15T03:18:19;50.80;;;25.85;;
51927;SDS011;37953;52.806;18.270;2024-02-15T03:20:45;53.72;;;30.38;;
51927;SDS011;37953;52.806;18.270;2024-02-15T03:23:11;64.93;;;32.75;;
51927;SDS011;37953;52.806;18.270;2024-02-15T03:25:37;75.53;;;40.47;;
51927;SDS011;37953;52.806;18.270;2024-02-15T03:28:03;103.93;;;55.45;;
51927;SDS011;37953;52.806;18.270;2024-02-15T03:30:31;89.30;;;52.47;;
51927;SDS011;37953;52.806;18.270;2024-02-15T03:32:59;96.90;;;52.25;;
51927;SDS011;37953;52.806;18.270;2024-02-15T03:35:25;85.07;;;47.03;;
51927;SDS011;37953;52.806;18.270;2024-02-15T03:38:02;84.57;;;43.85;;
51927;SDS011;37953;52.806;18.270;2024-02-15T03:40:28;83.47;;;42.42;;
51927;SDS011;37953;52.806;18.270;2024-02-15T03:43:04;77.38;;;37.60;;
51927;SDS011;37953;52.806;18.270;2024-02-15T03:45:32;70.13;;;35.47;;
51927;SDS011;37953;52.806;18.270;2024-02-15T03:47:58;71.70;;;37.38;;
51927;SDS011;37953;52.806;18.270;2024-02-15T03:50:24;68.55;;;35.67;;
51927;SDS011;37953;52.806;18.270;2024-02-15T03:52:50;65.40;;;34.33;;
51927;SDS011;37953;52.806;18.270;2024-02-15T03:55:17;72.40;;;35.53;;
51927;SDS011;37953;52.806;18.270;2024-02-15T03:57:43;77.45;;;36.00;;
51927;SDS011;37953;52.806;18.270;2024-02-15T04:00:12;83.53;;;34.88;;
51927;SDS011;37953;52.806;18.270;2024-02-15T04:02:46;66.82;;;33.42;;
51927;SDS011;37953;52.806;18.270;2024-02-15T04:05:14;68.93;;;33.38;;
51927;SDS011;37953;52.806;18.270;2024-02-15T04:07:40;59.30;;;32.63;;
51927;SDS011;37953;52.806;18.270;2024-02-15T04:10:15;70.38;;;35.63;;
51927;SDS011;37953;52.806;18.270;2024-02-15T04:12:43;71.63;;;35.08;;
51927;SDS011;37953;52.806;18.270;2024-02-15T04:15:09;64.07;;;30.73;;
51927;SDS011;37953;52.806;18.270;2024-02-15T04:17:44;63.53;;;32.38;;
51927;SDS011;37953;52.806;18.270;2024-02-15T04:20:19;67.82;;;33.08;;
51927;SDS011;37953;52.806;18.270;2024-02-15T04:22:45;65.40;;;33.17;;
51927;SDS011;37953;52.806;18.270;2024-02-15T04:25:21;64.20;;;33.60;;
51927;SDS011;37953;52.806;18.270;2024-02-15T04:27:53;59.55;;;31.45;;
51927;SDS011;37953;52.806;18.270;2024-02-15T04:30:20;64.10;;;32.78;;
51927;SDS011;37953;52.806;18.270;2024-02-15T04:32:49;60.17;;;31.42;;
51927;SDS011;37953;52.806;18.270;2024-02-15T04:35:15;52.72;;;28.00;;
51927;SDS011;37953;52.806;18.270;2024-02-15T04:37:41;127.70;;;30.55;;
51927;SDS011;37953;52.806;18.270;2024-02-15T04:40:08;49.50;;;27.27;;
51927;SDS011;37953;52.806;18.270;2024-02-15T04:42:43;47.15;;;27.38;;
51927;SDS011;37953;52.806;18.270;2024-02-15T04:45:13;52.15;;;27.60;;
51927;SDS011;37953;52.806;18.270;2024-02-15T04:47:40;51.17;;;26.15;;
51927;SDS011;37953;52.806;18.270;2024-02-15T04:50:07;45.75;;;25.30;;
51927;SDS011;37953;52.806;18.270;2024-02-15T04:52:34;45.75;;;26.05;;
51927;SDS011;37953;52.806;18.270;2024-02-15T04:55:01;47.72;;;25.95;;
51927;SDS011;37953;52.806;18.270;2024-02-15T04:57:30;42.72;;;24.58;;
51927;SDS011;37953;52.806;18.270;2024-02-15T04:59:58;38.85;;;22.65;;
51927;SDS011;37953;52.806;18.270;2024-02-15T05:02:25;40.75;;;22.20;;
51927;SDS011;37953;52.806;18.270;2024-02-15T05:04:51;42.63;;;21.38;;
51927;SDS011;37953;52.806;18.270;2024-02-15T05:07:22;36.15;;;21.52;;
51927;SDS011;37953;52.806;18.270;2024-02-15T05:09:49;45.53;;;22.20;;
51927;SDS011;37953;52.806;18.270;2024-02-15T05:12:27;39.38;;;22.20;;
51927;SDS011;37953;52.806;18.270;2024-02-15T05:14:53;47.42;;;22.05;;
51927;SDS011;37953;52.806;18.270;2024-02-15T05:17:19;41.10;;;21.98;;
51927;SDS011;37953;52.806;18.270;2024-02-15T05:19:45;38.72;;;22.10;;
51927;SDS011;37953;52.806;18.270;2024-02-15T05:22:11;48.28;;;23.80;;
51927;SDS011;37953;52.806;18.270;2024-02-15T05:24:39;40.78;;;21.90;;
51927;SDS011;37953;52.806;18.270;2024-02-15T05:27:05;56.03;;;24.20;;
51927;SDS011;37953;52.806;18.270;2024-02-15T05:29:31;56.03;;;26.58;;
51927;SDS011;37953;52.806;18.270;2024-02-15T05:32:01;55.45;;;26.67;;
51927;SDS011;37953;52.806;18.270;2024-02-15T05:34:27;46.10;;;24.58;;
51927;SDS011;37953;52.806;18.270;2024-02-15T05:36:56;42.78;;;22.35;;
51927;SDS011;37953;52.806;18.270;2024-02-15T05:39:22;41.67;;;22.08;;
51927;SDS011;37953;52.806;18.270;2024-02-15T05:41:48;41.75;;;21.92;;
51927;SDS011;37953;52.806;18.270;2024-02-15T05:44:14;46.28;;;22.70;;
51927;SDS011;37953;52.806;18.270;2024-02-15T05:46:44;43.95;;;22.30;;
51927;SDS011;37953;52.806;18.270;2024-02-15T05:49:11;42.40;;;22.63;;
51927;SDS011;37953;52.806;18.270;2024-02-15T05:52:01;45.28;;;23.27;;
51927;SDS011;37953;52.806;18.270;2024-02-15T05:54:47;44.65;;;21.83;;
51927;SDS011;37953;52.806;18.270;2024-02-15T05:57:14;44.63;;;21.83;;
51927;SDS011;37953;52.806;18.270;2024-02-15T05:59:41;41.90;;;22.00;;
51927;SDS011;37953;52.806;18.270;2024-02-15T06:02:10;42.08;;;21.85;;
51927;SDS011;37953;52.806;18.270;2024-02-15T06:04:37;41.05;;;21.50;;
51927;SDS011;37953;52.806;18.270;2024-02-15T06:07:03;34.70;;;20.65;;
51927;SDS011;37953;52.806;18.270;2024-02-15T06:09:30;38.78;;;21.48;;
51927;SDS011;37953;52.806;18.270;2024-02-15T06:12:07;43.03;;;22.52;;
51927;SDS011;37953;52.806;18.270;2024-02-15T06:14:33;43.28;;;23.20;;
51927;SDS011;37953;52.806;18.270;2024-02-15T06:16:59;47.72;;;23.40;;
51927;SDS011;37953;52.806;18.270;2024-02-15T06:19:25;60.95;;;26.45;;
51927;SDS011;37953;52.806;18.270;2024-02-15T06:21:52;58.58;;;28.30;;
51927;SDS011;37953;52.806;18.270;2024-02-15T06:24:18;57.90;;;27.45;;
51927;SDS011;37953;52.806;18.270;2024-02-15T06:26:44;54.15;;;27.27;;
51927;SDS011;37953;52.806;18.270;2024-02-15T06:29:11;54.67;;;26.67;;
51927;SDS011;37953;52.806;18.270;2024-02-15T06:31:55;54.42;;;26.83;;
51927;SDS011;37953;52.806;18.270;2024-02-15T06:34:51;52.33;;;26.23;;
51927;SDS011;37953;52.806;18.270;2024-02-15T06:37:49;121.30;;;29.77;;
51927;SDS011;37953;52.806;18.270;2024-02-15T06:40:34;53.08;;;27.15;;
51927;SDS011;37953;52.806;18.270;2024-02-15T06:43:01;53.28;;;26.95;;
51927;SDS011;37953;52.806;18.270;2024-02-15T06:45:28;56.33;;;29.52;;
51927;SDS011;37953;52.806;18.270;2024-02-15T06:48:14;49.33;;;26.80;;
51927;SDS011;37953;52.806;18.270;2024-02-15T06:50:41;46.90;;;25.27;;
51927;SDS011;37953;52.806;18.270;2024-02-15T06:53:06;48.58;;;25.15;;
51927;SDS011;37953;52.806;18.270;2024-02-15T06:55:34;45.50;;;22.70;;
51927;SDS011;37953;52.806;18.270;2024-02-15T06:58:19;43.78;;;22.42;;
51927;SDS011;37953;52.806;18.270;2024-02-15T07:00:47;40.05;;;21.88;;
51927;SDS011;37953;52.806;18.270;2024-02-15T07:03:15;40.33;;;21.40;;
51927;SDS011;37953;52.806;18.270;2024-02-15T07:05:43;40.55;;;21.42;;
51927;SDS011;37953;52.806;18.270;2024-02-15T07:08:09;107.15;;;24.25;;
51927;SDS011;37953;52.806;18.270;2024-02-15T07:10:55;46.83;;;24.77;;
51927;SDS011;37953;52.806;18.270;2024-02-15T07:13:21;46.15;;;23.25;;
51927;SDS011;37953;52.806;18.270;2024-02-15T07:15:48;54.15;;;24.23;;
51927;SDS011;37953;52.806;18.270;2024-02-15T07:18:15;47.55;;;25.05;;
51927;SDS011;37953;52.806;18.270;2024-02-15T07:20:52;47.40;;;25.17;;
51927;SDS011;37953;52.806;18.270;2024-02-15T07:23:18;51.97;;;26.92;;
51927;SDS011;37953;52.806;18.270;2024-02-15T07:25:44;48.45;;;27.75;;
51927;SDS011;37953;52.806;18.270;2024-02-15T07:28:18;56.38;;;28.88;;
51927;SDS011;37953;52.806;18.270;2024-02-15T07:33:28;59.78;;;29.63;;
51927;SDS011;37953;52.806;18.270;2024-02-15T07:35:54;55.90;;;31.25;;
51927;SDS011;37953;52.806;18.270;2024-02-15T07:38:22;59.30;;;30.38;;
51927;SDS011;37953;52.806;18.270;2024-02-15T07:41:06;51.25;;;30.52;;
51927;SDS011;37953;52.806;18.270;2024-02-15T07:43:32;57.08;;;31.85;;
51927;SDS011;37953;52.806;18.270;2024-02-15T07:45:59;61.40;;;32.55;;
51927;SDS011;37953;52.806;18.270;2024-02-15T07:48:25;59.13;;;32.92;;
51927;SDS011;37953;52.806;18.270;2024-02-15T07:50:54;61.92;;;33.10;;
51927;SDS011;37953;52.806;18.270;2024-02-15T07:53:20;61.42;;;34.25;;
51927;SDS011;37953;52.806;18.270;2024-02-15T07:55:47;63.13;;;33.72;;
51927;SDS011;37953;52.806;18.270;2024-02-15T07:58:13;58.90;;;33.13;;
51927;SDS011;37953;52.806;18.270;2024-02-15T08:00:40;62.10;;;31.10;;
51927;SDS011;37953;52.806;18.270;2024-02-15T08:03:05;63.75;;;33.30;;
51927;SDS011;37953;52.806;18.270;2024-02-15T08:05:33;71.22;;;36.33;;
51927;SDS011;37953;52.806;18.270;2024-02-15T08:07:59;201.52;;;39.05;;
51927;SDS011;37953;52.806;18.270;2024-02-15T08:10:25;56.95;;;30.10;;
51927;SDS011;37953;52.806;18.270;2024-02-15T08:12:53;80.70;;;44.70;;
51927;SDS011;37953;52.806;18.270;2024-02-15T08:15:21;80.07;;;42.65;;
51927;SDS011;37953;52.806;18.270;2024-02-15T08:17:58;67.68;;;35.00;;
51927;SDS011;37953;52.806;18.270;2024-02-15T08:20:24;60.22;;;33.22;;
51927;SDS011;37953;52.806;18.270;2024-02-15T08:22:50;59.42;;;33.20;;
51927;SDS011;37953;52.806;18.270;2024-02-15T08:25:16;60.38;;;30.95;;
51927;SDS011;37953;52.806;18.270;2024-02-15T08:27:47;58.65;;;31.77;;
51927;SDS011;37953;52.806;18.270;2024-02-15T08:30:15;85.82;;;39.63;;
51927;SDS011;37953;52.806;18.270;2024-02-15T08:32:42;93.65;;;42.17;;
51927;SDS011;37953;52.806;18.270;2024-02-15T08:35:11;72.78;;;34.15;;
51927;SDS011;37953;52.806;18.270;2024-02-15T08:37:41;60.30;;;27.08;;
51927;SDS011;37953;52.806;18.270;2024-02-15T08:42:39;45.40;;;25.17;;
51927;SDS011;37953;52.806;18.270;2024-02-15T08:45:10;48.53;;;26.00;;
51927;SDS011;37953;52.806;18.270;2024-02-15T08:47:36;44.22;;;24.30;;
51927;SDS011;37953;52.806;18.270;2024-02-15T08:50:12;51.50;;;25.23;;
51927;SDS011;37953;52.806;18.270;2024-02-15T08:52:38;50.17;;;25.80;;
51927;SDS011;37953;52.806;18.270;2024-02-15T08:55:13;46.63;;;25.88;;
51927;SDS011;37953;52.806;18.270;2024-02-15T08:57:40;48.85;;;25.88;;
51927;SDS011;37953;52.806;18.270;2024-02-15T09:00:15;50.30;;;26.75;;
51927;SDS011;37953;52.806;18.270;2024-02-15T09:02:42;52.25;;;27.42;;
51927;SDS011;37953;52.806;18.270;2024-02-15T09:05:18;45.95;;;25.40;;
51927;SDS011;37953;52.806;18.270;2024-02-15T09:07:47;45.33;;;24.98;;
51927;SDS011;37953;52.806;18.270;2024-02-15T09:10:14;39.38;;;22.02;;
51927;SDS011;37953;52.806;18.270;2024-02-15T09:12:51;36.47;;;20.30;;
51927;SDS011;37953;52.806;18.270;2024-02-15T09:15:17;41.65;;;21.48;;
51927;SDS011;37953;52.806;18.270;2024-02-15T09:17:51;41.55;;;20.67;;
51927;SDS011;37953;52.806;18.270;2024-02-15T09:20:20;34.92;;;19.85;;
51927;SDS011;37953;52.806;18.270;2024-02-15T09:22:52;41.03;;;20.50;;
51927;SDS011;37953;52.806;18.270;2024-02-15T09:25:20;36.95;;;19.75;;
51927;SDS011;37953;52.806;18.270;2024-02-15T09:27:50;41.00;;;20.10;;
51927;SDS011;37953;52.806;18.270;2024-02-15T09:30:17;36.17;;;19.27;;
51927;SDS011;37953;52.806;18.270;2024-02-15T09:32:43;37.47;;;19.00;;
51927;SDS011;37953;52.806;18.270;2024-02-15T09:35:10;44.35;;;19.42;;
51927;SDS011;37953;52.806;18.270;2024-02-15T09:37:47;41.33;;;20.73;;
51927;SDS011;37953;52.806;18.270;2024-02-15T09:40:15;40.83;;;20.48;;
51927;SDS011;37953;52.806;18.270;2024-02-15T09:42:42;39.08;;;19.13;;
51927;SDS011;37953;52.806;18.270;2024-02-15T09:45:12;34.45;;;19.10;;
51927;SDS011;37953;52.806;18.270;2024-02-15T09:47:40;38.10;;;19.13;;
51927;SDS011;37953;52.806;18.270;2024-02-15T09:50:10;35.05;;;20.52;;
51927;SDS011;37953;52.806;18.270;2024-02-15T09:52:39;41.08;;;21.73;;
51927;SDS011;37953;52.806;18.270;2024-02-15T09:55:07;46.20;;;23.92;;
51927;SDS011;37953;52.806;18.270;2024-02-15T09:57:41;46.30;;;24.52;;
51927;SDS011;37953;52.806;18.270;2024-02-15T10:00:10;43.90;;;23.65;;
51927;SDS011;37953;52.806;18.270;2024-02-15T10:02:43;47.13;;;25.75;;
51927;SDS011;37953;52.806;18.270;2024-02-15T10:05:10;48.75;;;24.88;;
51927;SDS011;37953;52.806;18.270;2024-02-15T10:07:38;40.95;;;22.98;;
51927;SDS011;37953;52.806;18.270;2024-02-15T10:12:53;53.08;;;29.10;;
51927;SDS011;37953;52.806;18.270;2024-02-15T10:18:25;47.72;;;24.00;;
51927;SDS011;37953;52.806;18.270;2024-02-15T10:20:57;42.00;;;22.13;;
51927;SDS011;37953;52.806;18.270;2024-02-15T10:23:23;58.88;;;23.83;;
51927;SDS011;37953;52.806;18.270;2024-02-15T10:25:50;52.25;;;24.40;;
51927;SDS011;37953;52.806;18.270;2024-02-15T10:28:22;61.53;;;27.52;;
51927;SDS011;37953;52.806;18.270;2024-02-15T10:30:53;65.32;;;26.83;;
51927;SDS011;37953;52.806;18.270;2024-02-15T10:33:25;64.15;;;28.25;;
51927;SDS011;37953;52.806;18.270;2024-02-15T10:36:04;62.28;;;26.27;;
51927;SDS011;37953;52.806;18.270;2024-02-15T10:38:51;52.80;;;25.02;;
51927;SDS011;37953;52.806;18.270;2024-02-15T10:41:20;50.60;;;24.40;;
51927;SDS011;37953;52.806;18.270;2024-02-15T10:43:46;53.83;;;26.65;;
51927;SDS011;37953;52.806;18.270;2024-02-15T10:46:13;50.33;;;25.25;;
51927;SDS011;37953;52.806;18.270;2024-02-15T10:48:40;52.97;;;26.75;;
51927;SDS011;37953;52.806;18.270;2024-02-15T10:51:09;51.08;;;24.55;;
51927;SDS011;37953;52.806;18.270;2024-02-15T10:53:36;44.37;;;23.17;;
51927;SDS011;37953;52.806;18.270;2024-02-15T10:56:12;56.25;;;23.38;;
51927;SDS011;37953;52.806;18.270;2024-02-15T10:59:17;55.88;;;23.25;;
51927;SDS011;37953;52.806;18.270;2024-02-15T11:01:46;60.70;;;22.60;;
51927;SDS011;37953;52.806;18.270;2024-02-15T11:04:23;69.72;;;26.10;;
51927;SDS011;37953;52.806;18.270;2024-02-15T11:06:57;47.67;;;22.60;;
51927;SDS011;37953;52.806;18.270;2024-02-15T11:09:24;47.58;;;21.27;;
51927;SDS011;37953;52.806;18.270;2024-02-15T11:11:54;50.78;;;20.60;;
51927;SDS011;37953;52.806;18.270;2024-02-15T11:14:28;46.92;;;20.80;;
51927;SDS011;37953;52.806;18.270;2024-02-15T11:16:56;45.67;;;21.23;;
51927;SDS011;37953;52.806;18.270;2024-02-15T11:22:09;54.47;;;21.90;;
51927;SDS011;37953;52.806;18.270;2024-02-15T11:24:55;64.82;;;20.98;;
51927;SDS011;37953;52.806;18.270;2024-02-15T11:27:31;56.88;;;23.55;;
51927;SDS011;37953;52.806;18.270;2024-02-15T11:29:58;55.75;;;22.33;;
51927;SDS011;37953;52.806;18.270;2024-02-15T11:32:57;55.25;;;22.65;;
51927;SDS011;37953;52.806;18.270;2024-02-15T11:35:23;55.58;;;23.20;;
51927;SDS011;37953;52.806;18.270;2024-02-15T11:37:51;61.70;;;25.73;;
51927;SDS011;37953;52.806;18.270;2024-02-15T11:43:44;54.88;;;22.58;;
51927;SDS011;37953;52.806;18.270;2024-02-15T11:46:19;61.38;;;24.73;;
51927;SDS011;37953;52.806;18.270;2024-02-15T11:48:48;56.78;;;23.92;;
51927;SDS011;37953;52.806;18.270;2024-02-15T11:51:24;59.30;;;24.73;;
51927;SDS011;37953;52.806;18.270;2024-02-15T11:54:06;63.50;;;27.60;;
51927;SDS011;37953;52.806;18.270;2024-02-15T11:59:38;62.58;;;25.05;;
51927;SDS011;37953;52.806;18.270;2024-02-15T12:02:19;60.17;;;25.45;;
51927;SDS011;37953;52.806;18.270;2024-02-15T12:05:05;58.22;;;24.73;;
51927;SDS011;37953;52.806;18.270;2024-02-15T12:07:50;56.38;;;23.30;;
51927;SDS011;37953;52.806;18.270;2024-02-15T12:10:32;39.92;;;22.42;;
51927;SDS011;37953;52.806;18.270;2024-02-15T12:13:19;35.72;;;19.02;;
51927;SDS011;37953;52.806;18.270;2024-02-15T12:16:04;29.15;;;16.45;;
51927;SDS011;37953;52.806;18.270;2024-02-15T12:18:49;26.70;;;15.23;;
51927;SDS011;37953;52.806;18.270;2024-02-15T12:21:24;28.35;;;15.52;;
51927;SDS011;37953;52.806;18.270;2024-02-15T12:23:53;26.38;;;15.45;;
51927;SDS011;37953;52.806;18.270;2024-02-15T12:26:19;26.77;;;15.88;;
51927;SDS011;37953;52.806;18.270;2024-02-15T12:28:50;32.22;;;16.58;;
51927;SDS011;37953;52.806;18.270;2024-02-15T12:31:17;28.95;;;16.95;;
51927;SDS011;37953;52.806;18.270;2024-02-15T12:33:44;32.47;;;17.58;;
51927;SDS011;37953;52.806;18.270;2024-02-15T12:36:12;30.95;;;17.27;;
51927;SDS011;37953;52.806;18.270;2024-02-15T12:38:38;74.10;;;19.73;;
51927;SDS011;37953;52.806;18.270;2024-02-15T12:41:17;39.20;;;17.50;;
51927;SDS011;37953;52.806;18.270;2024-02-15T12:43:53;42.80;;;18.30;;
51927;SDS011;37953;52.806;18.270;2024-02-15T12:46:21;43.45;;;18.52;;
51927;SDS011;37953;52.806;18.270;2024-02-15T12:48:48;42.63;;;18.23;;
51927;SDS011;37953;52.806;18.270;2024-02-15T12:51:15;44.60;;;18.48;;
51927;SDS011;37953;52.806;18.270;2024-02-15T12:53:42;45.85;;;19.02;;
51927;SDS011;37953;52.806;18.270;2024-02-15T12:56:08;37.97;;;17.58;;
51927;SDS011;37953;52.806;18.270;2024-02-15T12:58:40;37.38;;;16.98;;
51927;SDS011;37953;52.806;18.270;2024-02-15T13:01:09;38.55;;;16.98;;
51927;SDS011;37953;52.806;18.270;2024-02-15T13:03:38;32.00;;;16.05;;
51927;SDS011;37953;52.806;18.270;2024-02-15T13:06:05;47.03;;;21.10;;
51927;SDS011;37953;52.806;18.270;2024-02-15T13:08:35;57.22;;;23.35;;
51927;SDS011;37953;52.806;18.270;2024-02-15T13:11:01;44.58;;;23.83;;
51927;SDS011;37953;52.806;18.270;2024-02-15T13:13:28;48.00;;;24.05;;
51927;SDS011;37953;52.806;18.270;2024-02-15T13:15:54;52.13;;;24.10;;
51927;SDS011;37953;52.806;18.270;2024-02-15T13:18:21;45.88;;;22.33;;
51927;SDS011;37953;52.806;18.270;2024-02-15T13:20:47;53.85;;;26.25;;
51927;SDS011;37953;52.806;18.270;2024-02-15T13:23:18;49.95;;;26.90;;
51927;SDS011;37953;52.806;18.270;2024-02-15T13:25:53;50.75;;;26.52;;
51927;SDS011;37953;52.806;18.270;2024-02-15T13:28:22;50.00;;;28.17;;
51927;SDS011;37953;52.806;18.270;2024-02-15T13:30:50;53.88;;;25.80;;
51927;SDS011;37953;52.806;18.270;2024-02-15T13:33:19;50.00;;;24.73;;
51927;SDS011;37953;52.806;18.270;2024-02-15T13:35:46;60.17;;;27.42;;
51927;SDS011;37953;52.806;18.270;2024-02-15T13:38:12;60.40;;;31.30;;
51927;SDS011;37953;52.806;18.270;2024-02-15T13:40:38;51.00;;;28.10;;
51927;SDS011;37953;52.806;18.270;2024-02-15T13:43:05;43.05;;;21.80;;
51927;SDS011;37953;52.806;18.270;2024-02-15T13:45:31;45.28;;;23.52;;
51927;SDS011;37953;52.806;18.270;2024-02-15T13:48:03;41.45;;;23.33;;
51927;SDS011;37953;52.806;18.270;2024-02-15T13:50:33;45.25;;;21.95;;
51927;SDS011;37953;52.806;18.270;2024-02-15T13:52:59;39.10;;;18.58;;
51927;SDS011;37953;52.806;18.270;2024-02-15T13:55:26;35.53;;;17.55;;
51927;SDS011;37953;52.806;18.270;2024-02-15T13:57:53;40.90;;;20.27;;
51927;SDS011;37953;52.806;18.270;2024-02-15T14:00:22;37.33;;;20.42;;
51927;SDS011;37953;52.806;18.270;2024-02-15T14:02:52;43.30;;;19.88;;
51927;SDS011;37953;52.806;18.270;2024-02-15T14:05:21;44.38;;;19.73;;
51927;SDS011;37953;52.806;18.270;2024-02-15T14:07:51;38.10;;;17.30;;
51927;SDS011;37953;52.806;18.270;2024-02-15T14:10:24;37.83;;;17.65;;
51927;SDS011;37953;52.806;18.270;2024-02-15T14:12:53;41.22;;;20.27;;
51927;SDS011;37953;52.806;18.270;2024-02-15T14:15:29;39.10;;;21.45;;
51927;SDS011;37953;52.806;18.270;2024-02-15T14:17:56;33.20;;;19.45;;
51927;SDS011;37953;52.806;18.270;2024-02-15T14:20:22;40.45;;;19.05;;
51927;SDS011;37953;52.806;18.270;2024-02-15T14:22:49;43.65;;;20.17;;
51927;SDS011;37953;52.806;18.270;2024-02-15T14:25:36;44.85;;;20.95;;
51927;SDS011;37953;52.806;18.270;2024-02-15T14:28:03;36.92;;;21.83;;
51927;SDS011;37953;52.806;18.270;2024-02-15T14:30:30;41.58;;;22.90;;
51927;SDS011;37953;52.806;18.270;2024-02-15T14:33:15;50.60;;;24.50;;
51927;SDS011;37953;52.806;18.270;2024-02-15T14:35:42;156.77;;;27.00;;
51927;SDS011;37953;52.806;18.270;2024-02-15T14:38:24;44.78;;;20.73;;
51927;SDS011;37953;52.806;18.270;2024-02-15T14:40:50;48.88;;;21.90;;
51927;SDS011;37953;52.806;18.270;2024-02-15T14:43:20;45.70;;;21.58;;
51927;SDS011;37953;52.806;18.270;2024-02-15T14:45:48;53.63;;;22.80;;
51927;SDS011;37953;52.806;18.270;2024-02-15T14:48:14;54.35;;;23.38;;